Meling Ranch Airstrip

Jump to: basic info | weather | comments

Related pages: nearby airports | nearby navaids

Basic information (top)

Codes: MSJG
Location: lon 30.975328, lat -115.737877
Status: small_airport

Weather (top)

Current conditions for General Rodolfo Sánchez Taboada International Airport 103nm (190km) NNE (rec'd 2014/07/24 23:46Z):

MMML 242346Z 17010KT 10SM BKN150 45/06 A2962 RMK SLP035 57028 983 8/030 ISOL CI HZY

Airport forecast for General Rodolfo Sánchez Taboada International Airport 103nm (190km) NNE (rec'd 2014/07/24 18:27Z):

TAF MMML 241721Z 2418/2518 12010KT P6SM SCT220 
     FM242100 18015KT P6SM SCT040 BKN220 
     FM250200 18006KT P6SM BKN220 
      BECMG 2505/2506 00000KT 
     FM251600 16010KT P6SM SCT220

Latest comments (top)

No comments yet for Meling Ranch Airstrip

More... (top)

See also NOTAMs and nearby airports and navaids, or visit the Meling Ranch Airstrip page at the main OurAirports website..